sensor_id;sensor_type;location;lat;lon;timestamp;P1;durP1;ratioP1;P2;durP2;ratioP2
21611;SDS011;47005;52.292;13.452;2022-12-18T00:01:29;25.30;;;12.47;;
21611;SDS011;47005;52.292;13.452;2022-12-18T00:04:00;26.27;;;12.17;;
21611;SDS011;47005;52.292;13.452;2022-12-18T00:06:27;31.30;;;13.63;;
21611;SDS011;47005;52.292;13.452;2022-12-18T00:08:54;31.17;;;14.10;;
21611;SDS011;47005;52.292;13.452;2022-12-18T00:11:22;33.83;;;14.33;;
21611;SDS011;47005;52.292;13.452;2022-12-18T00:13:49;37.33;;;19.33;;
21611;SDS011;47005;52.292;13.452;2022-12-18T00:16:17;40.73;;;18.90;;
21611;SDS011;47005;52.292;13.452;2022-12-18T00:18:47;36.93;;;16.20;;
21611;SDS011;47005;52.292;13.452;2022-12-18T00:21:14;45.70;;;19.00;;
21611;SDS011;47005;52.292;13.452;2022-12-18T00:23:41;31.80;;;15.07;;
21611;SDS011;47005;52.292;13.452;2022-12-18T00:26:24;35.40;;;15.90;;
21611;SDS011;47005;52.292;13.452;2022-12-18T00:28:57;33.77;;;16.23;;
21611;SDS011;47005;52.292;13.452;2022-12-18T00:31:24;35.00;;;16.13;;
21611;SDS011;47005;52.292;13.452;2022-12-18T00:33:51;29.77;;;15.23;;
21611;SDS011;47005;52.292;13.452;2022-12-18T00:36:18;35.73;;;16.17;;
21611;SDS011;47005;52.292;13.452;2022-12-18T00:38:45;35.70;;;14.80;;
21611;SDS011;47005;52.292;13.452;2022-12-18T00:41:12;37.10;;;16.27;;
21611;SDS011;47005;52.292;13.452;2022-12-18T00:43:59;39.63;;;16.87;;
21611;SDS011;47005;52.292;13.452;2022-12-18T00:46:24;36.67;;;14.93;;
21611;SDS011;47005;52.292;13.452;2022-12-18T00:48:50;46.83;;;18.17;;
21611;SDS011;47005;52.292;13.452;2022-12-18T00:51:16;39.13;;;18.33;;
21611;SDS011;47005;52.292;13.452;2022-12-18T00:53:41;45.97;;;17.53;;
21611;SDS011;47005;52.292;13.452;2022-12-18T00:56:07;43.67;;;16.67;;
21611;SDS011;47005;52.292;13.452;2022-12-18T00:58:32;46.13;;;17.17;;
21611;SDS011;47005;52.292;13.452;2022-12-18T01:00:58;38.53;;;17.63;;
21611;SDS011;47005;52.292;13.452;2022-12-18T01:03:23;41.87;;;18.43;;
21611;SDS011;47005;52.292;13.452;2022-12-18T01:05:49;42.43;;;17.33;;
21611;SDS011;47005;52.292;13.452;2022-12-18T01:08:15;39.23;;;18.47;;
21611;SDS011;47005;52.292;13.452;2022-12-18T01:10:40;49.53;;;20.33;;
21611;SDS011;47005;52.292;13.452;2022-12-18T01:13:06;53.87;;;20.90;;
21611;SDS011;47005;52.292;13.452;2022-12-18T01:15:32;34.10;;;16.87;;
21611;SDS011;47005;52.292;13.452;2022-12-18T01:17:57;41.37;;;19.27;;
21611;SDS011;47005;52.292;13.452;2022-12-18T01:20:23;43.70;;;20.20;;
21611;SDS011;47005;52.292;13.452;2022-12-18T01:22:48;44.67;;;19.97;;
21611;SDS011;47005;52.292;13.452;2022-12-18T01:25:14;45.87;;;21.33;;
21611;SDS011;47005;52.292;13.452;2022-12-18T01:27:40;47.23;;;20.67;;
21611;SDS011;47005;52.292;13.452;2022-12-18T01:30:05;54.80;;;23.27;;
21611;SDS011;47005;52.292;13.452;2022-12-18T01:32:32;47.33;;;20.67;;
21611;SDS011;47005;52.292;13.452;2022-12-18T01:34:58;49.60;;;20.23;;
21611;SDS011;47005;52.292;13.452;2022-12-18T01:37:23;48.33;;;19.30;;
21611;SDS011;47005;52.292;13.452;2022-12-18T01:39:49;47.40;;;19.73;;
21611;SDS011;47005;52.292;13.452;2022-12-18T01:42:15;50.57;;;22.07;;
21611;SDS011;47005;52.292;13.452;2022-12-18T01:44:58;52.23;;;21.90;;
21611;SDS011;47005;52.292;13.452;2022-12-18T01:47:35;51.10;;;24.07;;
21611;SDS011;47005;52.292;13.452;2022-12-18T01:52:49;47.33;;;21.90;;
21611;SDS011;47005;52.292;13.452;2022-12-18T01:55:20;51.23;;;22.87;;
21611;SDS011;47005;52.292;13.452;2022-12-18T01:57:49;50.10;;;22.17;;
21611;SDS011;47005;52.292;13.452;2022-12-18T02:00:18;47.10;;;20.43;;
21611;SDS011;47005;52.292;13.452;2022-12-18T02:02:46;40.00;;;20.90;;
21611;SDS011;47005;52.292;13.452;2022-12-18T02:05:12;41.40;;;16.03;;
21611;SDS011;47005;52.292;13.452;2022-12-18T02:10:27;53.63;;;21.00;;
21611;SDS011;47005;52.292;13.452;2022-12-18T02:13:09;46.93;;;20.00;;
21611;SDS011;47005;52.292;13.452;2022-12-18T02:16:19;41.30;;;19.47;;
21611;SDS011;47005;52.292;13.452;2022-12-18T02:18:59;41.63;;;18.17;;
21611;SDS011;47005;52.292;13.452;2022-12-18T02:26:45;52.13;;;20.63;;
21611;SDS011;47005;52.292;13.452;2022-12-18T02:29:16;48.93;;;21.10;;
21611;SDS011;47005;52.292;13.452;2022-12-18T02:31:51;47.60;;;20.40;;
21611;SDS011;47005;52.292;13.452;2022-12-18T02:34:19;43.03;;;18.50;;
21611;SDS011;47005;52.292;13.452;2022-12-18T02:36:48;46.47;;;19.67;;
21611;SDS011;47005;52.292;13.452;2022-12-18T02:39:16;49.63;;;19.43;;
21611;SDS011;47005;52.292;13.452;2022-12-18T02:41:45;55.47;;;21.40;;
21611;SDS011;47005;52.292;13.452;2022-12-18T02:44:12;47.87;;;18.83;;
21611;SDS011;47005;52.292;13.452;2022-12-18T02:54:36;43.37;;;19.77;;
21611;SDS011;47005;52.292;13.452;2022-12-18T02:57:36;41.47;;;17.33;;
21611;SDS011;47005;52.292;13.452;2022-12-18T03:02:58;42.73;;;16.23;;
21611;SDS011;47005;52.292;13.452;2022-12-18T03:05:36;36.90;;;15.97;;
21611;SDS011;47005;52.292;13.452;2022-12-18T03:08:06;37.67;;;16.27;;
21611;SDS011;47005;52.292;13.452;2022-12-18T03:10:37;42.70;;;17.33;;
21611;SDS011;47005;52.292;13.452;2022-12-18T03:13:08;32.53;;;15.13;;
21611;SDS011;47005;52.292;13.452;2022-12-18T03:15:38;36.33;;;16.67;;
21611;SDS011;47005;52.292;13.452;2022-12-18T03:18:11;35.77;;;14.57;;
21611;SDS011;47005;52.292;13.452;2022-12-18T03:20:42;42.43;;;16.20;;
21611;SDS011;47005;52.292;13.452;2022-12-18T03:23:12;43.53;;;16.00;;
21611;SDS011;47005;52.292;13.452;2022-12-18T03:25:42;44.40;;;15.83;;
21611;SDS011;47005;52.292;13.452;2022-12-18T03:28:12;35.77;;;14.30;;
21611;SDS011;47005;52.292;13.452;2022-12-18T03:30:41;31.90;;;14.53;;
21611;SDS011;47005;52.292;13.452;2022-12-18T03:33:10;33.67;;;14.87;;
21611;SDS011;47005;52.292;13.452;2022-12-18T03:35:43;41.43;;;17.00;;
21611;SDS011;47005;52.292;13.452;2022-12-18T03:38:09;40.13;;;16.33;;
21611;SDS011;47005;52.292;13.452;2022-12-18T03:40:53;33.77;;;15.40;;
21611;SDS011;47005;52.292;13.452;2022-12-18T03:46:28;39.63;;;18.43;;
21611;SDS011;47005;52.292;13.452;2022-12-18T03:49:02;32.13;;;15.73;;
21611;SDS011;47005;52.292;13.452;2022-12-18T03:51:39;27.23;;;14.87;;
21611;SDS011;47005;52.292;13.452;2022-12-18T03:54:09;39.67;;;16.13;;
21611;SDS011;47005;52.292;13.452;2022-12-18T03:56:37;38.53;;;16.50;;
21611;SDS011;47005;52.292;13.452;2022-12-18T03:59:07;37.27;;;17.17;;
21611;SDS011;47005;52.292;13.452;2022-12-18T04:01:35;39.63;;;16.20;;
21611;SDS011;47005;52.292;13.452;2022-12-18T04:04:04;33.47;;;14.03;;
21611;SDS011;47005;52.292;13.452;2022-12-18T04:06:32;45.57;;;17.03;;
21611;SDS011;47005;52.292;13.452;2022-12-18T04:08:57;34.03;;;16.17;;
21611;SDS011;47005;52.292;13.452;2022-12-18T04:11:24;42.80;;;18.77;;
21611;SDS011;47005;52.292;13.452;2022-12-18T04:13:49;46.17;;;17.97;;
21611;SDS011;47005;52.292;13.452;2022-12-18T04:16:15;42.00;;;20.07;;
21611;SDS011;47005;52.292;13.452;2022-12-18T04:18:40;46.07;;;17.80;;
21611;SDS011;47005;52.292;13.452;2022-12-18T04:21:06;35.13;;;17.93;;
21611;SDS011;47005;52.292;13.452;2022-12-18T04:23:32;41.37;;;19.47;;
21611;SDS011;47005;52.292;13.452;2022-12-18T04:25:57;33.37;;;16.63;;
21611;SDS011;47005;52.292;13.452;2022-12-18T04:28:23;42.37;;;16.73;;
21611;SDS011;47005;52.292;13.452;2022-12-18T04:30:49;37.50;;;14.80;;
21611;SDS011;47005;52.292;13.452;2022-12-18T04:33:14;40.13;;;16.53;;
21611;SDS011;47005;52.292;13.452;2022-12-18T04:35:40;39.13;;;16.73;;
21611;SDS011;47005;52.292;13.452;2022-12-18T04:38:06;33.67;;;14.37;;
21611;SDS011;47005;52.292;13.452;2022-12-18T04:40:34;33.53;;;15.23;;
21611;SDS011;47005;52.292;13.452;2022-12-18T04:43:00;35.30;;;16.50;;
21611;SDS011;47005;52.292;13.452;2022-12-18T04:45:26;32.80;;;15.50;;
21611;SDS011;47005;52.292;13.452;2022-12-18T04:47:51;36.47;;;15.13;;
21611;SDS011;47005;52.292;13.452;2022-12-18T04:50:17;36.97;;;15.00;;
21611;SDS011;47005;52.292;13.452;2022-12-18T04:52:43;34.97;;;16.70;;
21611;SDS011;47005;52.292;13.452;2022-12-18T04:55:08;40.03;;;18.73;;
21611;SDS011;47005;52.292;13.452;2022-12-18T04:57:34;34.10;;;15.40;;
21611;SDS011;47005;52.292;13.452;2022-12-18T05:00:00;42.93;;;18.00;;
21611;SDS011;47005;52.292;13.452;2022-12-18T05:02:25;39.93;;;18.10;;
21611;SDS011;47005;52.292;13.452;2022-12-18T05:04:51;37.77;;;18.20;;
21611;SDS011;47005;52.292;13.452;2022-12-18T05:07:16;38.60;;;17.33;;
21611;SDS011;47005;52.292;13.452;2022-12-18T05:09:42;37.53;;;17.23;;
21611;SDS011;47005;52.292;13.452;2022-12-18T05:12:08;30.83;;;15.57;;
21611;SDS011;47005;52.292;13.452;2022-12-18T05:14:33;43.97;;;16.30;;
21611;SDS011;47005;52.292;13.452;2022-12-18T05:17:00;35.20;;;16.27;;
21611;SDS011;47005;52.292;13.452;2022-12-18T05:19:26;37.40;;;15.67;;
21611;SDS011;47005;52.292;13.452;2022-12-18T05:21:51;41.40;;;16.20;;
21611;SDS011;47005;52.292;13.452;2022-12-18T05:24:17;36.40;;;16.43;;
21611;SDS011;47005;52.292;13.452;2022-12-18T05:26:43;35.97;;;16.87;;
21611;SDS011;47005;52.292;13.452;2022-12-18T05:29:08;35.13;;;17.57;;
21611;SDS011;47005;52.292;13.452;2022-12-18T05:31:37;47.17;;;18.33;;
21611;SDS011;47005;52.292;13.452;2022-12-18T05:34:03;38.60;;;18.97;;
21611;SDS011;47005;52.292;13.452;2022-12-18T05:36:28;41.77;;;18.70;;
21611;SDS011;47005;52.292;13.452;2022-12-18T05:38:54;36.67;;;16.43;;
21611;SDS011;47005;52.292;13.452;2022-12-18T05:41:20;34.23;;;17.17;;
21611;SDS011;47005;52.292;13.452;2022-12-18T05:43:45;32.97;;;14.83;;
21611;SDS011;47005;52.292;13.452;2022-12-18T05:46:12;35.67;;;17.37;;
21611;SDS011;47005;52.292;13.452;2022-12-18T05:48:40;37.63;;;17.47;;
21611;SDS011;47005;52.292;13.452;2022-12-18T05:51:07;39.77;;;18.00;;
21611;SDS011;47005;52.292;13.452;2022-12-18T05:53:35;42.40;;;18.10;;
21611;SDS011;47005;52.292;13.452;2022-12-18T05:56:02;41.70;;;16.63;;
21611;SDS011;47005;52.292;13.452;2022-12-18T05:58:30;40.50;;;17.23;;
21611;SDS011;47005;52.292;13.452;2022-12-18T06:00:56;42.97;;;17.10;;
21611;SDS011;47005;52.292;13.452;2022-12-18T06:03:22;36.53;;;17.03;;
21611;SDS011;47005;52.292;13.452;2022-12-18T06:05:48;37.63;;;16.63;;
21611;SDS011;47005;52.292;13.452;2022-12-18T06:08:13;41.97;;;15.37;;
21611;SDS011;47005;52.292;13.452;2022-12-18T06:10:39;43.13;;;15.17;;
21611;SDS011;47005;52.292;13.452;2022-12-18T06:13:05;39.37;;;16.50;;
21611;SDS011;47005;52.292;13.452;2022-12-18T06:15:31;36.77;;;14.37;;
21611;SDS011;47005;52.292;13.452;2022-12-18T06:17:57;37.13;;;15.93;;
21611;SDS011;47005;52.292;13.452;2022-12-18T06:20:25;36.07;;;16.27;;
21611;SDS011;47005;52.292;13.452;2022-12-18T06:22:50;34.00;;;14.17;;
21611;SDS011;47005;52.292;13.452;2022-12-18T06:25:16;35.80;;;16.77;;
21611;SDS011;47005;52.292;13.452;2022-12-18T06:27:41;33.70;;;12.60;;
21611;SDS011;47005;52.292;13.452;2022-12-18T06:30:07;33.10;;;14.63;;
21611;SDS011;47005;52.292;13.452;2022-12-18T06:32:34;34.17;;;14.03;;
21611;SDS011;47005;52.292;13.452;2022-12-18T06:34:59;33.53;;;14.30;;
21611;SDS011;47005;52.292;13.452;2022-12-18T06:37:25;32.93;;;14.20;;
21611;SDS011;47005;52.292;13.452;2022-12-18T06:39:51;36.17;;;14.20;;
21611;SDS011;47005;52.292;13.452;2022-12-18T06:42:18;36.40;;;13.73;;
21611;SDS011;47005;52.292;13.452;2022-12-18T06:44:43;29.40;;;13.90;;
21611;SDS011;47005;52.292;13.452;2022-12-18T06:47:09;35.00;;;14.40;;
21611;SDS011;47005;52.292;13.452;2022-12-18T06:49:34;29.07;;;12.00;;
21611;SDS011;47005;52.292;13.452;2022-12-18T06:52:00;33.33;;;13.90;;
21611;SDS011;47005;52.292;13.452;2022-12-18T06:54:26;29.23;;;13.00;;
21611;SDS011;47005;52.292;13.452;2022-12-18T06:56:51;32.43;;;14.03;;
21611;SDS011;47005;52.292;13.452;2022-12-18T06:59:17;33.77;;;14.90;;
21611;SDS011;47005;52.292;13.452;2022-12-18T07:01:42;34.33;;;13.50;;
21611;SDS011;47005;52.292;13.452;2022-12-18T07:04:08;35.70;;;14.70;;
21611;SDS011;47005;52.292;13.452;2022-12-18T07:06:34;32.03;;;13.13;;
21611;SDS011;47005;52.292;13.452;2022-12-18T07:08:59;27.50;;;12.33;;
21611;SDS011;47005;52.292;13.452;2022-12-18T07:11:25;38.73;;;15.43;;
21611;SDS011;47005;52.292;13.452;2022-12-18T07:13:51;30.23;;;13.33;;
21611;SDS011;47005;52.292;13.452;2022-12-18T07:16:18;33.80;;;15.80;;
21611;SDS011;47005;52.292;13.452;2022-12-18T07:18:45;33.17;;;16.00;;
21611;SDS011;47005;52.292;13.452;2022-12-18T07:21:12;32.00;;;13.80;;
21611;SDS011;47005;52.292;13.452;2022-12-18T07:23:40;34.87;;;14.37;;
21611;SDS011;47005;52.292;13.452;2022-12-18T07:26:06;31.00;;;14.97;;
21611;SDS011;47005;52.292;13.452;2022-12-18T07:28:34;25.13;;;12.83;;
21611;SDS011;47005;52.292;13.452;2022-12-18T07:31:04;27.47;;;14.10;;
21611;SDS011;47005;52.292;13.452;2022-12-18T07:33:32;27.03;;;13.33;;
21611;SDS011;47005;52.292;13.452;2022-12-18T07:35:59;35.70;;;13.20;;
21611;SDS011;47005;52.292;13.452;2022-12-18T07:38:25;34.13;;;14.63;;
21611;SDS011;47005;52.292;13.452;2022-12-18T07:40:50;33.47;;;12.53;;
21611;SDS011;47005;52.292;13.452;2022-12-18T07:43:16;30.70;;;13.63;;
21611;SDS011;47005;52.292;13.452;2022-12-18T07:45:42;39.30;;;13.43;;
21611;SDS011;47005;52.292;13.452;2022-12-18T07:48:08;30.53;;;12.67;;
21611;SDS011;47005;52.292;13.452;2022-12-18T07:50:34;30.37;;;14.00;;
21611;SDS011;47005;52.292;13.452;2022-12-18T07:53:00;28.83;;;13.37;;
21611;SDS011;47005;52.292;13.452;2022-12-18T07:55:28;32.40;;;13.67;;
21611;SDS011;47005;52.292;13.452;2022-12-18T07:57:55;31.37;;;13.13;;
21611;SDS011;47005;52.292;13.452;2022-12-18T08:00:20;34.70;;;15.73;;
21611;SDS011;47005;52.292;13.452;2022-12-18T08:02:46;29.63;;;14.40;;
21611;SDS011;47005;52.292;13.452;2022-12-18T08:05:12;33.30;;;15.00;;
21611;SDS011;47005;52.292;13.452;2022-12-18T08:07:38;26.73;;;13.70;;
21611;SDS011;47005;52.292;13.452;2022-12-18T08:10:04;31.73;;;13.97;;
21611;SDS011;47005;52.292;13.452;2022-12-18T08:12:30;33.87;;;13.63;;
21611;SDS011;47005;52.292;13.452;2022-12-18T08:14:56;35.80;;;15.73;;
21611;SDS011;47005;52.292;13.452;2022-12-18T08:17:22;31.40;;;15.43;;
21611;SDS011;47005;52.292;13.452;2022-12-18T08:19:47;36.10;;;15.93;;
21611;SDS011;47005;52.292;13.452;2022-12-18T08:22:13;34.33;;;16.87;;
21611;SDS011;47005;52.292;13.452;2022-12-18T08:24:38;40.20;;;16.63;;
21611;SDS011;47005;52.292;13.452;2022-12-18T08:27:04;38.67;;;15.50;;
21611;SDS011;47005;52.292;13.452;2022-12-18T08:29:30;38.57;;;16.03;;
21611;SDS011;47005;52.292;13.452;2022-12-18T08:31:56;30.60;;;13.73;;
21611;SDS011;47005;52.292;13.452;2022-12-18T08:34:22;28.13;;;12.87;;
21611;SDS011;47005;52.292;13.452;2022-12-18T08:36:48;34.20;;;14.17;;
21611;SDS011;47005;52.292;13.452;2022-12-18T08:39:13;31.10;;;15.37;;
21611;SDS011;47005;52.292;13.452;2022-12-18T08:41:39;36.67;;;17.37;;
21611;SDS011;47005;52.292;13.452;2022-12-18T08:44:06;33.33;;;15.70;;
21611;SDS011;47005;52.292;13.452;2022-12-18T08:46:51;34.20;;;14.33;;
21611;SDS011;47005;52.292;13.452;2022-12-18T08:49:16;41.97;;;16.20;;
21611;SDS011;47005;52.292;13.452;2022-12-18T08:51:42;32.47;;;13.13;;
21611;SDS011;47005;52.292;13.452;2022-12-18T08:54:08;30.80;;;13.60;;
21611;SDS011;47005;52.292;13.452;2022-12-18T08:56:36;23.43;;;11.90;;
21611;SDS011;47005;52.292;13.452;2022-12-18T08:59:01;26.23;;;11.80;;
21611;SDS011;47005;52.292;13.452;2022-12-18T09:01:27;25.53;;;12.80;;
21611;SDS011;47005;52.292;13.452;2022-12-18T09:03:53;26.03;;;13.27;;
21611;SDS011;47005;52.292;13.452;2022-12-18T09:06:20;29.50;;;12.50;;
21611;SDS011;47005;52.292;13.452;2022-12-18T09:08:46;29.23;;;14.33;;
21611;SDS011;47005;52.292;13.452;2022-12-18T09:11:13;33.50;;;14.30;;
21611;SDS011;47005;52.292;13.452;2022-12-18T09:13:43;24.03;;;10.30;;
21611;SDS011;47005;52.292;13.452;2022-12-18T09:16:09;24.13;;;12.90;;
21611;SDS011;47005;52.292;13.452;2022-12-18T09:18:34;31.93;;;13.07;;
21611;SDS011;47005;52.292;13.452;2022-12-18T09:21:06;24.83;;;12.27;;
21611;SDS011;47005;52.292;13.452;2022-12-18T09:23:42;21.27;;;12.20;;
21611;SDS011;47005;52.292;13.452;2022-12-18T09:26:09;25.70;;;12.23;;
21611;SDS011;47005;52.292;13.452;2022-12-18T09:28:35;28.53;;;13.93;;
21611;SDS011;47005;52.292;13.452;2022-12-18T09:31:05;30.03;;;14.30;;
21611;SDS011;47005;52.292;13.452;2022-12-18T09:33:32;25.83;;;12.07;;
21611;SDS011;47005;52.292;13.452;2022-12-18T09:36:00;34.33;;;14.20;;
21611;SDS011;47005;52.292;13.452;2022-12-18T09:38:28;27.40;;;14.03;;
21611;SDS011;47005;52.292;13.452;2022-12-18T09:40:55;24.53;;;11.67;;
21611;SDS011;47005;52.292;13.452;2022-12-18T09:43:45;28.10;;;12.40;;
21611;SDS011;47005;52.292;13.452;2022-12-18T09:46:17;25.50;;;12.20;;
21611;SDS011;47005;52.292;13.452;2022-12-18T09:48:51;25.20;;;12.60;;
21611;SDS011;47005;52.292;13.452;2022-12-18T09:51:22;26.33;;;12.40;;
21611;SDS011;47005;52.292;13.452;2022-12-18T09:54:33;25.80;;;12.27;;
21611;SDS011;47005;52.292;13.452;2022-12-18T09:56:57;72.67;;;36.93;;
21611;SDS011;47005;52.292;13.452;2022-12-18T09:59:24;33.97;;;17.70;;
21611;SDS011;47005;52.292;13.452;2022-12-18T10:02:11;30.33;;;15.17;;
21611;SDS011;47005;52.292;13.452;2022-12-18T10:04:43;29.73;;;13.93;;
21611;SDS011;47005;52.292;13.452;2022-12-18T10:10:33;25.27;;;12.27;;
21611;SDS011;47005;52.292;13.452;2022-12-18T10:13:34;23.67;;;11.60;;
21611;SDS011;47005;52.292;13.452;2022-12-18T10:16:16;33.07;;;14.70;;
21611;SDS011;47005;52.292;13.452;2022-12-18T10:24:45;27.20;;;13.80;;
21611;SDS011;47005;52.292;13.452;2022-12-18T10:27:32;37.47;;;15.77;;
21611;SDS011;47005;52.292;13.452;2022-12-18T10:29:58;34.63;;;16.43;;
21611;SDS011;47005;52.292;13.452;2022-12-18T10:32:27;21.87;;;11.47;;
21611;SDS011;47005;52.292;13.452;2022-12-18T10:34:57;26.00;;;14.07;;
21611;SDS011;47005;52.292;13.452;2022-12-18T10:37:27;31.47;;;14.87;;
21611;SDS011;47005;52.292;13.452;2022-12-18T10:40:13;34.37;;;15.60;;
21611;SDS011;47005;52.292;13.452;2022-12-18T10:42:40;28.83;;;14.50;;
21611;SDS011;47005;52.292;13.452;2022-12-18T10:45:11;29.80;;;17.60;;
21611;SDS011;47005;52.292;13.452;2022-12-18T10:47:42;34.77;;;16.60;;
21611;SDS011;47005;52.292;13.452;2022-12-18T10:50:18;31.73;;;13.93;;
21611;SDS011;47005;52.292;13.452;2022-12-18T10:53:01;28.30;;;14.70;;
21611;SDS011;47005;52.292;13.452;2022-12-18T10:55:34;31.90;;;14.10;;
21611;SDS011;47005;52.292;13.452;2022-12-18T10:58:16;33.67;;;15.90;;
21611;SDS011;47005;52.292;13.452;2022-12-18T11:01:05;35.43;;;14.70;;
21611;SDS011;47005;52.292;13.452;2022-12-18T11:03:40;37.03;;;15.10;;
21611;SDS011;47005;52.292;13.452;2022-12-18T11:08:37;32.20;;;15.03;;
21611;SDS011;47005;52.292;13.452;2022-12-18T11:11:04;27.70;;;13.17;;
21611;SDS011;47005;52.292;13.452;2022-12-18T11:13:41;30.40;;;15.03;;
21611;SDS011;47005;52.292;13.452;2022-12-18T11:16:18;30.67;;;15.20;;
21611;SDS011;47005;52.292;13.452;2022-12-18T11:18:45;26.00;;;14.93;;
21611;SDS011;47005;52.292;13.452;2022-12-18T11:21:11;30.97;;;16.37;;
21611;SDS011;47005;52.292;13.452;2022-12-18T11:23:44;27.40;;;15.13;;
21611;SDS011;47005;52.292;13.452;2022-12-18T11:26:11;25.03;;;13.27;;
21611;SDS011;47005;52.292;13.452;2022-12-18T11:28:39;26.47;;;15.33;;
21611;SDS011;47005;52.292;13.452;2022-12-18T11:33:37;29.77;;;13.23;;
21611;SDS011;47005;52.292;13.452;2022-12-18T11:36:06;26.20;;;13.30;;
21611;SDS011;47005;52.292;13.452;2022-12-18T11:38:35;26.77;;;14.30;;
21611;SDS011;47005;52.292;13.452;2022-12-18T11:43:31;24.00;;;12.40;;
21611;SDS011;47005;52.292;13.452;2022-12-18T11:48:35;26.83;;;13.73;;
21611;SDS011;47005;52.292;13.452;2022-12-18T11:51:15;17.60;;;10.63;;
21611;SDS011;47005;52.292;13.452;2022-12-18T11:53:47;22.97;;;13.03;;
21611;SDS011;47005;52.292;13.452;2022-12-18T11:56:27;24.00;;;13.00;;
21611;SDS011;47005;52.292;13.452;2022-12-18T12:02:38;27.97;;;14.37;;
21611;SDS011;47005;52.292;13.452;2022-12-18T12:07:42;21.47;;;11.57;;
21611;SDS011;47005;52.292;13.452;2022-12-18T12:15:48;22.37;;;11.97;;
21611;SDS011;47005;52.292;13.452;2022-12-18T12:21:53;22.13;;;11.90;;
21611;SDS011;47005;52.292;13.452;2022-12-18T12:31:46;23.93;;;12.83;;
21611;SDS011;47005;52.292;13.452;2022-12-18T12:34:31;25.63;;;14.60;;
21611;SDS011;47005;52.292;13.452;2022-12-18T12:39:53;23.67;;;10.70;;
21611;SDS011;47005;52.292;13.452;2022-12-18T12:42:23;21.20;;;11.37;;
21611;SDS011;47005;52.292;13.452;2022-12-18T12:45:22;19.70;;;10.70;;
21611;SDS011;47005;52.292;13.452;2022-12-18T12:47:53;24.37;;;11.33;;
21611;SDS011;47005;52.292;13.452;2022-12-18T12:50:20;18.80;;;9.40;;
21611;SDS011;47005;52.292;13.452;2022-12-18T12:52:47;20.67;;;12.47;;
21611;SDS011;47005;52.292;13.452;2022-12-18T12:55:21;16.90;;;9.00;;
21611;SDS011;47005;52.292;13.452;2022-12-18T12:57:57;19.10;;;10.73;;
21611;SDS011;47005;52.292;13.452;2022-12-18T13:00:25;23.50;;;14.13;;
21611;SDS011;47005;52.292;13.452;2022-12-18T13:02:59;31.07;;;17.07;;
21611;SDS011;47005;52.292;13.452;2022-12-18T13:08:03;18.53;;;12.60;;
21611;SDS011;47005;52.292;13.452;2022-12-18T13:10:36;22.90;;;11.90;;
21611;SDS011;47005;52.292;13.452;2022-12-18T13:15:33;26.47;;;15.93;;
21611;SDS011;47005;52.292;13.452;2022-12-18T13:18:11;27.40;;;15.13;;
21611;SDS011;47005;52.292;13.452;2022-12-18T13:25:50;45.93;;;20.07;;
21611;SDS011;47005;52.292;13.452;2022-12-18T13:28:17;37.00;;;19.77;;
21611;SDS011;47005;52.292;13.452;2022-12-18T13:30:53;29.57;;;14.87;;
21611;SDS011;47005;52.292;13.452;2022-12-18T13:41:39;28.50;;;15.13;;
21611;SDS011;47005;52.292;13.452;2022-12-18T13:46:57;26.90;;;14.77;;
21611;SDS011;47005;52.292;13.452;2022-12-18T13:49:26;33.00;;;16.90;;
21611;SDS011;47005;52.292;13.452;2022-12-18T13:51:55;38.63;;;19.70;;
21611;SDS011;47005;52.292;13.452;2022-12-18T13:56:55;32.63;;;15.40;;
21611;SDS011;47005;52.292;13.452;2022-12-18T13:59:24;40.23;;;21.67;;
21611;SDS011;47005;52.292;13.452;2022-12-18T14:01:55;45.10;;;21.80;;
21611;SDS011;47005;52.292;13.452;2022-12-18T14:06:47;43.27;;;22.60;;
21611;SDS011;47005;52.292;13.452;2022-12-18T14:09:21;48.93;;;25.27;;
21611;SDS011;47005;52.292;13.452;2022-12-18T14:11:50;47.93;;;22.30;;
21611;SDS011;47005;52.292;13.452;2022-12-18T14:14:17;52.23;;;24.87;;
21611;SDS011;47005;52.292;13.452;2022-12-18T14:16:44;46.50;;;24.40;;
21611;SDS011;47005;52.292;13.452;2022-12-18T14:19:15;49.00;;;26.60;;
21611;SDS011;47005;52.292;13.452;2022-12-18T14:21:46;44.30;;;24.13;;
21611;SDS011;47005;52.292;13.452;2022-12-18T14:24:15;36.13;;;18.97;;
21611;SDS011;47005;52.292;13.452;2022-12-18T14:26:43;43.30;;;21.13;;
21611;SDS011;47005;52.292;13.452;2022-12-18T14:32:04;35.73;;;21.77;;
21611;SDS011;47005;52.292;13.452;2022-12-18T14:34:39;38.20;;;19.37;;
21611;SDS011;47005;52.292;13.452;2022-12-18T14:37:05;38.33;;;22.53;;
21611;SDS011;47005;52.292;13.452;2022-12-18T14:39:34;33.97;;;18.93;;
21611;SDS011;47005;52.292;13.452;2022-12-18T14:41:59;40.63;;;17.43;;
21611;SDS011;47005;52.292;13.452;2022-12-18T14:44:25;29.57;;;18.43;;
21611;SDS011;47005;52.292;13.452;2022-12-18T14:46:51;31.77;;;19.23;;
21611;SDS011;47005;52.292;13.452;2022-12-18T14:49:31;27.00;;;14.70;;
21611;SDS011;47005;52.292;13.452;2022-12-18T14:51:59;32.50;;;16.43;;
21611;SDS011;47005;52.292;13.452;2022-12-18T14:54:27;29.97;;;16.37;;
21611;SDS011;47005;52.292;13.452;2022-12-18T14:59:25;30.63;;;16.27;;
21611;SDS011;47005;52.292;13.452;2022-12-18T15:02:12;26.93;;;16.07;;
21611;SDS011;47005;52.292;13.452;2022-12-18T15:04:40;29.07;;;16.17;;
21611;SDS011;47005;52.292;13.452;2022-12-18T15:07:16;29.40;;;16.57;;
21611;SDS011;47005;52.292;13.452;2022-12-18T15:12:43;32.57;;;16.27;;
21611;SDS011;47005;52.292;13.452;2022-12-18T15:18:01;31.70;;;15.83;;
21611;SDS011;47005;52.292;13.452;2022-12-18T15:20:27;24.13;;;13.67;;
21611;SDS011;47005;52.292;13.452;2022-12-18T15:22:56;22.53;;;13.20;;
21611;SDS011;47005;52.292;13.452;2022-12-18T15:25:32;27.67;;;15.40;;
21611;SDS011;47005;52.292;13.452;2022-12-18T15:28:01;29.87;;;15.47;;
21611;SDS011;47005;52.292;13.452;2022-12-18T15:30:27;28.97;;;16.10;;
21611;SDS011;47005;52.292;13.452;2022-12-18T15:33:16;29.43;;;15.73;;
21611;SDS011;47005;52.292;13.452;2022-12-18T15:36:00;24.13;;;13.50;;
21611;SDS011;47005;52.292;13.452;2022-12-18T15:38:33;25.43;;;15.60;;
21611;SDS011;47005;52.292;13.452;2022-12-18T15:40:59;27.43;;;14.53;;
21611;SDS011;47005;52.292;13.452;2022-12-18T15:43:25;29.43;;;15.47;;
21611;SDS011;47005;52.292;13.452;2022-12-18T15:45:58;26.83;;;14.37;;
21611;SDS011;47005;52.292;13.452;2022-12-18T15:48:25;23.77;;;14.50;;
21611;SDS011;47005;52.292;13.452;2022-12-18T15:50:51;23.27;;;13.00;;
21611;SDS011;47005;52.292;13.452;2022-12-18T15:53:21;20.53;;;12.50;;
21611;SDS011;47005;52.292;13.452;2022-12-18T15:55:48;19.07;;;12.57;;
21611;SDS011;47005;52.292;13.452;2022-12-18T15:58:32;24.07;;;12.67;;
21611;SDS011;47005;52.292;13.452;2022-12-18T16:00:58;20.30;;;12.50;;
21611;SDS011;47005;52.292;13.452;2022-12-18T16:03:25;22.10;;;12.90;;
21611;SDS011;47005;52.292;13.452;2022-12-18T16:05:51;24.20;;;13.90;;
21611;SDS011;47005;52.292;13.452;2022-12-18T16:08:16;27.83;;;17.10;;